createdAt,value
2018-09-22T00:02:05.570Z,3.23
2018-09-22T00:04:34.076Z,3.47
2018-09-22T00:07:02.567Z,3.23
2018-09-22T00:09:31.166Z,3.47
2018-09-22T00:11:59.702Z,3.20
2018-09-22T00:14:28.210Z,3.13
2018-09-22T00:16:56.939Z,3.17
2018-09-22T00:19:25.539Z,3.10
2018-09-22T00:21:54.191Z,3.40
2018-09-22T00:24:22.713Z,3.50
2018-09-22T00:26:51.265Z,3.40
2018-09-22T00:29:19.834Z,2.83
2018-09-22T00:31:48.413Z,3.10
2018-09-22T00:34:16.970Z,3.00
2018-09-22T00:36:45.486Z,3.30
2018-09-22T00:39:14.027Z,3.73
2018-09-22T00:41:42.630Z,3.13
2018-09-22T00:44:11.217Z,3.33
2018-09-22T00:46:40.055Z,3.00
2018-09-22T00:49:08.711Z,3.13
2018-09-22T00:51:37.236Z,2.93
2018-09-22T00:54:05.808Z,3.00
2018-09-22T00:56:34.361Z,3.30
2018-09-22T00:59:02.935Z,3.20
2018-09-22T01:01:31.734Z,3.43
2018-09-22T01:04:00.351Z,3.17
2018-09-22T01:06:28.878Z,2.90
2018-09-22T01:08:57.422Z,3.00
2018-09-22T01:11:26.007Z,3.20
2018-09-22T01:13:54.594Z,3.27
2018-09-22T01:16:23.158Z,2.87
2018-09-22T01:18:51.760Z,3.00
2018-09-22T01:21:20.315Z,2.57
2018-09-22T01:23:48.874Z,2.80
2018-09-22T01:26:18.267Z,3.13
2018-09-22T01:28:46.877Z,3.00
2018-09-22T01:31:15.414Z,2.80
2018-09-22T01:33:43.891Z,3.03
2018-09-22T01:36:12.466Z,3.10
2018-09-22T01:38:40.994Z,3.00
2018-09-22T01:41:09.523Z,3.00
2018-09-22T01:43:38.701Z,3.00
2018-09-22T01:46:07.251Z,2.80
2018-09-22T01:48:35.806Z,2.80
2018-09-22T01:51:04.331Z,2.80
2018-09-22T01:53:32.840Z,2.70
2018-09-22T01:56:01.345Z,3.17
2018-09-22T01:58:29.887Z,2.70
2018-09-22T02:00:58.478Z,2.87
2018-09-22T02:03:27.000Z,2.77
2018-09-22T02:05:55.592Z,2.90
2018-09-22T02:08:24.103Z,2.87
2018-09-22T02:10:52.597Z,2.60
2018-09-22T02:13:21.232Z,2.80
2018-09-22T02:15:49.779Z,2.80
2018-09-22T02:18:18.399Z,2.87
2018-09-22T02:20:46.958Z,3.00
2018-09-22T02:23:15.470Z,2.73
2018-09-22T02:25:44.096Z,2.90
2018-09-22T02:28:12.688Z,2.93
2018-09-22T02:30:41.224Z,2.93
2018-09-22T02:33:09.876Z,2.60
2018-09-22T02:35:38.464Z,2.57
2018-09-22T02:38:07.054Z,2.60
2018-09-22T02:40:35.632Z,2.87
2018-09-22T02:43:04.196Z,2.53
2018-09-22T02:45:32.754Z,2.73
2018-09-22T02:48:01.348Z,3.00
2018-09-22T02:50:29.956Z,2.70
2018-09-22T02:52:58.533Z,2.73
2018-09-22T02:55:27.039Z,2.30
2018-09-22T02:57:55.620Z,2.80
2018-09-22T03:00:24.156Z,2.50
2018-09-22T03:02:53.800Z,2.70
2018-09-22T03:05:22.451Z,2.80
2018-09-22T03:07:51.303Z,2.70
2018-09-22T03:10:19.977Z,2.73
2018-09-22T03:12:48.563Z,2.67
2018-09-22T03:15:17.256Z,2.70
2018-09-22T03:17:45.819Z,2.50
2018-09-22T03:20:14.380Z,2.60
2018-09-22T03:22:42.950Z,2.70
2018-09-22T03:25:11.549Z,2.60
2018-09-22T03:27:40.108Z,2.33
2018-09-22T03:30:08.756Z,2.87
2018-09-22T03:32:37.203Z,2.37
2018-09-22T03:35:05.754Z,2.77
2018-09-22T03:37:34.324Z,2.33
2018-09-22T03:40:02.900Z,2.77
2018-09-22T03:42:31.468Z,2.40
2018-09-22T03:45:00.042Z,2.57
2018-09-22T03:47:28.605Z,2.47
2018-09-22T03:49:57.159Z,2.77
2018-09-22T03:52:25.698Z,2.40
2018-09-22T03:54:54.340Z,2.40
2018-09-22T03:57:22.883Z,2.60
2018-09-22T03:59:51.397Z,2.20
2018-09-22T04:02:19.926Z,2.60
2018-09-22T04:04:48.510Z,2.30
2018-09-22T04:07:17.103Z,2.50
2018-09-22T04:09:45.664Z,2.50
2018-09-22T04:12:14.218Z,2.60
2018-09-22T04:14:42.880Z,2.57
2018-09-22T04:17:11.449Z,2.80
2018-09-22T04:19:41.658Z,2.40
2018-09-22T04:22:10.238Z,2.33
2018-09-22T04:24:38.844Z,2.43
2018-09-22T04:27:07.510Z,2.53
2018-09-22T04:29:36.097Z,2.60
2018-09-22T04:32:04.587Z,2.40
2018-09-22T04:34:33.205Z,2.87
2018-09-22T04:37:01.737Z,2.43
2018-09-22T04:39:30.224Z,2.40
2018-09-22T04:41:58.816Z,2.30
2018-09-22T04:44:27.342Z,2.40
2018-09-22T04:46:55.871Z,2.10
2018-09-22T04:49:24.428Z,2.53
2018-09-22T04:51:53.019Z,2.40
2018-09-22T04:54:21.530Z,2.47
2018-09-22T04:56:50.037Z,2.70
2018-09-22T04:59:18.578Z,2.30
2018-09-22T05:01:47.167Z,2.40
2018-09-22T05:04:15.771Z,2.60
2018-09-22T05:06:44.270Z,2.30
2018-09-22T05:09:13.422Z,2.40
2018-09-22T05:11:42.097Z,2.33
2018-09-22T05:14:10.718Z,2.40
2018-09-22T05:16:39.238Z,2.40
2018-09-22T05:19:07.850Z,2.40
2018-09-22T05:21:36.389Z,2.27
2018-09-22T05:24:04.951Z,2.33
2018-09-22T05:26:33.461Z,2.33
2018-09-22T05:29:01.963Z,2.40
2018-09-22T05:31:30.491Z,2.30
2018-09-22T05:33:58.975Z,2.33
2018-09-22T05:36:27.479Z,2.13
2018-09-22T05:38:56.007Z,2.13
2018-09-22T05:41:24.540Z,2.20
2018-09-22T05:43:53.030Z,2.20
2018-09-22T05:46:21.571Z,2.40
2018-09-22T05:48:50.091Z,2.30
2018-09-22T05:51:18.615Z,2.30
2018-09-22T05:53:47.196Z,2.30
2018-09-22T05:56:15.732Z,2.20
2018-09-22T05:58:44.256Z,2.00
2018-09-22T06:01:12.773Z,2.60
2018-09-22T06:03:41.458Z,2.40
2018-09-22T06:06:09.996Z,2.20
2018-09-22T06:08:38.760Z,2.20
2018-09-22T06:11:07.266Z,2.13
2018-09-22T06:13:35.870Z,2.07
2018-09-22T06:16:04.435Z,2.00
2018-09-22T06:18:32.989Z,2.23
2018-09-22T06:21:01.494Z,2.10
2018-09-22T06:23:30.105Z,2.50
2018-09-22T06:25:58.687Z,2.40
2018-09-22T06:28:27.298Z,2.20
2018-09-22T06:30:55.836Z,2.47
2018-09-22T06:33:24.351Z,2.43
2018-09-22T06:35:52.926Z,2.60
2018-09-22T06:38:21.486Z,2.10
2018-09-22T06:40:50.007Z,2.30
2018-09-22T06:43:18.586Z,2.10
2018-09-22T06:45:47.245Z,2.20
2018-09-22T06:48:15.814Z,2.30
2018-09-22T06:50:44.551Z,2.70
2018-09-22T06:53:13.063Z,3.10
2018-09-22T06:55:41.582Z,2.20
2018-09-22T06:58:10.155Z,2.50
2018-09-22T07:00:38.768Z,2.47
2018-09-22T07:03:07.425Z,2.63
2018-09-22T07:05:37.150Z,2.33
2018-09-22T07:08:05.726Z,2.53
2018-09-22T07:10:34.207Z,2.87
2018-09-22T07:13:02.854Z,2.40
2018-09-22T07:15:31.327Z,2.13
2018-09-22T07:17:59.802Z,2.70
2018-09-22T07:20:28.420Z,2.50
2018-09-22T07:23:27.493Z,2.57
2018-09-22T07:25:56.030Z,2.27
2018-09-22T07:28:24.496Z,2.40
2018-09-22T07:30:53.015Z,2.20
2018-09-22T07:33:21.484Z,2.20
2018-09-22T07:35:49.949Z,2.27
2018-09-22T07:38:18.428Z,2.50
2018-09-22T07:40:46.900Z,2.20
2018-09-22T07:43:15.364Z,2.50
2018-09-22T07:45:43.926Z,2.20
2018-09-22T07:48:12.391Z,2.57
2018-09-22T07:50:40.893Z,2.50
2018-09-22T07:53:09.389Z,2.60
2018-09-22T07:55:37.890Z,2.40
2018-09-22T07:58:06.462Z,2.47
2018-09-22T08:00:34.981Z,2.40
2018-09-22T08:03:03.507Z,2.53
2018-09-22T08:05:31.973Z,2.53
2018-09-22T08:08:00.442Z,2.37
2018-09-22T08:10:28.970Z,2.60
2018-09-22T08:12:57.445Z,2.27
2018-09-22T08:15:25.906Z,2.80
2018-09-22T08:17:54.383Z,2.03
2018-09-22T08:20:22.883Z,2.37
2018-09-22T08:22:51.353Z,2.20
2018-09-22T08:25:19.822Z,2.07
2018-09-22T08:27:48.310Z,2.53
2018-09-22T08:30:16.777Z,2.20
2018-09-22T08:32:45.247Z,2.03
2018-09-22T08:35:13.739Z,2.17
2018-09-22T08:37:42.237Z,5.63
2018-09-22T08:40:10.818Z,2.33
2018-09-22T08:42:39.329Z,2.77
2018-09-22T08:45:07.852Z,2.60
2018-09-22T08:47:37.110Z,2.67
2018-09-22T08:50:05.694Z,2.40
2018-09-22T08:52:34.128Z,2.40
2018-09-22T08:55:02.602Z,2.00
2018-09-22T08:57:31.091Z,2.10
2018-09-22T08:59:58.547Z,2.10
2018-09-22T09:02:27.060Z,2.00
2018-09-22T09:04:54.564Z,2.17
2018-09-22T09:07:22.998Z,2.10
2018-09-22T09:09:51.491Z,2.07
2018-09-22T09:12:19.973Z,2.60
2018-09-22T09:14:48.470Z,2.10
2018-09-22T09:17:16.933Z,2.10
2018-09-22T09:19:44.377Z,1.90
2018-09-22T09:22:11.835Z,2.10
2018-09-22T09:24:39.273Z,2.00
2018-09-22T09:27:06.727Z,2.13
2018-09-22T09:29:35.199Z,1.90
2018-09-22T09:32:03.722Z,2.27
2018-09-22T09:34:32.306Z,2.17
2018-09-22T09:37:00.808Z,1.90
2018-09-22T09:39:29.286Z,2.17
2018-09-22T09:41:57.756Z,2.17
2018-09-22T09:44:26.228Z,1.70
2018-09-22T09:46:54.719Z,1.90
2018-09-22T09:49:23.173Z,1.97
2018-09-22T09:51:51.672Z,2.00
2018-09-22T09:54:20.172Z,2.10
2018-09-22T09:56:48.656Z,1.90
2018-09-22T09:59:17.147Z,2.20
2018-09-22T10:01:45.619Z,2.20
2018-09-22T10:04:13.049Z,1.90
2018-09-22T10:06:41.579Z,2.00
2018-09-22T10:09:10.642Z,2.00
2018-09-22T10:11:39.210Z,2.00
2018-09-22T10:14:07.786Z,1.87
2018-09-22T10:16:36.443Z,2.03
2018-09-22T10:19:05.176Z,1.97
2018-09-22T10:21:34.400Z,2.00
2018-09-22T10:24:02.989Z,1.90
2018-09-22T10:26:31.542Z,2.00
2018-09-22T10:28:59.074Z,2.10
2018-09-22T10:31:27.691Z,1.80
2018-09-22T10:33:56.425Z,2.00
2018-09-22T10:36:25.145Z,2.07
2018-09-22T10:38:53.784Z,1.77
2018-09-22T10:41:22.322Z,1.77
2018-09-22T10:43:50.826Z,2.30
2018-09-22T10:46:19.365Z,2.10
2018-09-22T10:48:47.935Z,2.30
2018-09-22T10:51:16.590Z,2.30
2018-09-22T10:53:44.056Z,2.20
2018-09-22T10:56:12.582Z,1.93
2018-09-22T10:58:41.113Z,1.80
2018-09-22T11:01:09.631Z,1.93
2018-09-22T11:03:38.197Z,1.90
2018-09-22T11:06:06.865Z,1.97
2018-09-22T11:08:35.384Z,2.00
2018-09-22T11:11:02.903Z,2.50
2018-09-22T11:13:30.401Z,2.10
2018-09-22T11:15:57.908Z,2.33
2018-09-22T11:18:25.345Z,2.30
2018-09-22T11:20:53.872Z,2.70
2018-09-22T11:23:22.372Z,2.90
2018-09-22T11:25:49.806Z,2.67
2018-09-22T11:28:18.265Z,2.70
2018-09-22T11:30:45.700Z,2.63
2018-09-22T11:33:14.163Z,2.73
2018-09-22T11:35:42.655Z,3.03
2018-09-22T11:38:11.156Z,3.37
2018-09-22T11:40:38.627Z,3.33
2018-09-22T11:43:07.178Z,3.40
2018-09-22T11:45:34.613Z,2.80
2018-09-22T11:48:03.076Z,3.53
2018-09-22T11:50:31.542Z,3.40
2018-09-22T11:53:00.043Z,3.27
2018-09-22T11:55:27.471Z,3.70
2018-09-22T11:57:54.919Z,4.00
2018-09-22T12:00:23.410Z,3.60
2018-09-22T12:02:51.895Z,3.40
2018-09-22T12:05:20.407Z,3.77
2018-09-22T12:07:47.849Z,2.97
2018-09-22T12:10:16.311Z,3.47
2018-09-22T12:12:43.918Z,3.30
2018-09-22T12:15:11.428Z,3.57
2018-09-22T12:17:40.183Z,3.27
2018-09-22T12:20:08.650Z,3.63
2018-09-22T12:22:36.087Z,3.30
2018-09-22T12:25:04.563Z,3.20
2018-09-22T12:27:33.037Z,3.40
2018-09-22T12:30:01.516Z,3.33
2018-09-22T12:32:29.992Z,4.30
2018-09-22T12:34:58.492Z,3.50
2018-09-22T12:37:26.963Z,3.47
2018-09-22T12:39:55.438Z,3.50
2018-09-22T12:42:22.869Z,3.40
2018-09-22T12:44:51.344Z,3.87
2018-09-22T12:47:19.823Z,4.33
2018-09-22T12:49:48.316Z,4.27
2018-09-22T12:52:15.785Z,4.00
2018-09-22T12:54:44.256Z,3.60
2018-09-22T12:57:12.831Z,3.77
2018-09-22T12:59:40.255Z,3.67
2018-09-22T13:02:07.705Z,3.50
2018-09-22T13:04:36.186Z,3.63
2018-09-22T13:07:03.621Z,4.17
2018-09-22T13:09:32.123Z,3.50
2018-09-22T13:12:00.611Z,3.97
2018-09-22T13:14:29.084Z,4.00
2018-09-22T13:16:57.553Z,4.00
2018-09-22T13:19:26.035Z,3.80
2018-09-22T13:21:54.502Z,3.77
2018-09-22T13:24:22.979Z,3.87
2018-09-22T13:26:51.514Z,4.00
2018-09-22T13:29:20.033Z,4.23
2018-09-22T13:31:48.502Z,5.17
2018-09-22T13:34:16.972Z,4.37
2018-09-22T13:36:45.450Z,3.83
2018-09-22T13:39:14.049Z,4.00
2018-09-22T13:41:41.892Z,3.73
2018-09-22T13:44:10.628Z,3.50
2018-09-22T13:46:39.219Z,4.00
2018-09-22T13:49:07.706Z,3.80
2018-09-22T13:51:36.182Z,3.90
2018-09-22T13:54:04.673Z,4.40
2018-09-22T13:56:33.155Z,3.47
2018-09-22T13:59:01.646Z,3.70
2018-09-22T14:01:30.123Z,3.70
2018-09-22T14:03:58.601Z,3.53
2018-09-22T14:06:27.088Z,4.70
2018-09-22T14:08:55.569Z,4.00
2018-09-22T14:11:25.232Z,3.70
2018-09-22T14:13:54.370Z,3.83
2018-09-22T14:16:22.858Z,4.13
2018-09-22T14:18:51.326Z,3.53
2018-09-22T14:21:19.857Z,3.50
2018-09-22T14:23:48.383Z,3.70
2018-09-22T14:26:16.872Z,3.87
2018-09-22T14:28:45.395Z,3.23
2018-09-22T14:31:13.894Z,4.50
2018-09-22T14:33:42.450Z,3.43
2018-09-22T14:36:10.975Z,3.30
2018-09-22T14:38:39.448Z,3.90
2018-09-22T14:41:07.922Z,3.83
2018-09-22T14:43:36.491Z,3.70
2018-09-22T14:46:05.008Z,4.13
2018-09-22T14:48:33.532Z,3.97
2018-09-22T14:51:01.999Z,4.00
2018-09-22T14:53:29.655Z,3.40
2018-09-22T14:55:57.114Z,3.40
2018-09-22T14:58:25.579Z,4.07
2018-09-22T15:00:54.045Z,3.40
2018-09-22T15:03:22.526Z,3.47
2018-09-22T15:05:50.995Z,3.37
2018-09-22T15:08:19.642Z,4.37
2018-09-22T15:10:47.067Z,3.60
2018-09-22T15:13:15.649Z,3.23
2018-09-22T15:15:44.123Z,3.87
2018-09-22T15:18:12.618Z,3.37
2018-09-22T15:20:41.140Z,4.10
2018-09-22T15:23:09.681Z,3.23
2018-09-22T15:25:38.290Z,3.20
2018-09-22T15:28:06.763Z,3.33
2018-09-22T15:30:35.384Z,3.10
2018-09-22T15:33:03.081Z,3.77
2018-09-22T15:35:31.590Z,3.30
2018-09-22T15:38:00.135Z,3.40
2018-09-22T15:40:28.697Z,3.30
2018-09-22T15:42:58.346Z,3.07
2018-09-22T15:45:26.957Z,3.20
2018-09-22T15:47:55.605Z,3.07
2018-09-22T15:50:24.806Z,3.13
2018-09-22T15:52:53.310Z,3.47
2018-09-22T15:55:21.856Z,3.03
2018-09-22T15:57:50.399Z,3.67
2018-09-22T16:00:18.887Z,3.10
2018-09-22T16:02:47.478Z,3.40
2018-09-22T16:05:16.012Z,3.10
2018-09-22T16:07:44.514Z,3.70
2018-09-22T16:10:13.104Z,3.20
2018-09-22T16:12:41.631Z,3.20
2018-09-22T16:15:10.159Z,3.20
2018-09-22T16:17:38.641Z,3.10
2018-09-22T16:20:07.207Z,3.07
2018-09-22T16:22:35.750Z,3.17
2018-09-22T16:25:04.271Z,3.13
2018-09-22T16:27:32.743Z,3.30
2018-09-22T16:30:01.304Z,3.10
2018-09-22T16:32:29.778Z,2.93
2018-09-22T16:34:58.287Z,3.40
2018-09-22T16:37:26.763Z,2.80
2018-09-22T16:39:55.255Z,2.93
2018-09-22T16:42:23.779Z,3.13
2018-09-22T16:44:52.255Z,2.83
2018-09-22T16:47:20.730Z,3.07
2018-09-22T16:49:49.262Z,2.60
2018-09-22T16:52:20.171Z,2.73
2018-09-22T16:54:48.737Z,2.90
2018-09-22T16:57:17.275Z,2.83
2018-09-22T16:59:45.794Z,2.70
2018-09-22T17:02:14.311Z,2.57
2018-09-22T17:04:42.811Z,2.90
2018-09-22T17:07:11.290Z,3.20
2018-09-22T17:09:39.774Z,3.00
2018-09-22T17:12:08.274Z,2.63
2018-09-22T17:14:36.747Z,2.27
2018-09-22T17:17:05.235Z,2.97
2018-09-22T17:19:33.730Z,2.63
2018-09-22T17:22:02.203Z,2.53
2018-09-22T17:24:30.670Z,3.17
2018-09-22T17:26:59.134Z,2.83
2018-09-22T17:29:27.623Z,2.60
2018-09-22T17:31:56.102Z,2.87
2018-09-22T17:34:24.682Z,2.63
2018-09-22T17:36:53.158Z,2.43
2018-09-22T17:39:21.649Z,2.57
2018-09-22T17:41:50.159Z,2.53
2018-09-22T17:44:18.645Z,3.00
2018-09-22T17:46:47.127Z,2.63
2018-09-22T17:49:15.604Z,2.70
2018-09-22T17:51:44.067Z,3.13
2018-09-22T17:54:12.576Z,2.50
2018-09-22T17:56:41.046Z,2.67
2018-09-22T17:59:09.528Z,2.63
2018-09-22T18:01:37.995Z,2.23
2018-09-22T18:04:06.471Z,2.60
2018-09-22T18:06:34.975Z,2.47
2018-09-22T18:09:03.647Z,2.47
2018-09-22T18:11:32.122Z,2.43
2018-09-22T18:14:00.607Z,2.63
2018-09-22T18:16:29.095Z,2.50
2018-09-22T18:18:57.580Z,2.50
2018-09-22T18:21:26.141Z,2.70
2018-09-22T18:23:54.639Z,2.63
2018-09-22T18:26:23.180Z,2.80
2018-09-22T18:28:51.691Z,2.53
2018-09-22T18:31:20.189Z,2.30
2018-09-22T18:33:48.711Z,2.80
2018-09-22T18:36:17.239Z,2.40
2018-09-22T18:38:45.744Z,2.43
2018-09-22T18:41:14.266Z,2.50
2018-09-22T18:43:42.761Z,2.30
2018-09-22T18:46:10.200Z,2.53
2018-09-22T18:48:38.688Z,2.67
2018-09-22T18:51:07.330Z,2.20
2018-09-22T18:53:35.845Z,2.57
2018-09-22T18:56:05.664Z,2.40
2018-09-22T18:58:34.206Z,2.20
2018-09-22T19:01:01.679Z,2.30
2018-09-22T19:03:29.241Z,2.50
2018-09-22T19:05:57.838Z,2.70
2018-09-22T19:08:26.441Z,2.33
2018-09-22T19:10:55.011Z,2.17
2018-09-22T19:13:27.111Z,2.87
2018-09-22T19:15:57.526Z,2.37
2018-09-22T19:18:31.872Z,2.70
2018-09-22T19:22:03.274Z,2.57
2018-09-22T19:24:50.948Z,2.47
2018-09-22T19:28:26.308Z,2.50
2018-09-22T19:30:56.983Z,2.07
2018-09-22T19:33:31.237Z,2.27
2018-09-22T19:36:06.182Z,2.30
2018-09-22T19:38:42.776Z,2.37
2018-09-22T19:41:17.554Z,2.10
2018-09-22T19:44:04.703Z,2.27
2018-09-22T19:46:41.015Z,2.23
2018-09-22T19:49:16.255Z,2.47
2018-09-22T19:51:49.691Z,2.50
2018-09-22T19:54:18.352Z,2.27
2018-09-22T19:56:46.911Z,2.20
2018-09-22T19:59:15.478Z,2.47
2018-09-22T20:01:44.110Z,2.40
2018-09-22T20:04:12.716Z,2.20
2018-09-22T20:06:41.218Z,2.20
2018-09-22T20:09:09.796Z,2.17
2018-09-22T20:11:38.407Z,2.30
2018-09-22T20:14:07.084Z,2.13
2018-09-22T20:16:36.441Z,2.20
2018-09-22T20:19:05.005Z,2.40
2018-09-22T20:21:33.638Z,2.00
2018-09-22T20:24:02.344Z,2.03
2018-09-22T20:26:30.979Z,2.17
2018-09-22T20:28:59.523Z,2.67
2018-09-22T20:31:28.156Z,2.30
2018-09-22T20:33:56.814Z,1.97
2018-09-22T20:36:25.469Z,2.10
2018-09-22T20:38:54.325Z,2.13
2018-09-22T20:41:23.762Z,1.90
2018-09-22T20:43:52.374Z,2.10
2018-09-22T20:46:22.082Z,2.00
2018-09-22T20:48:50.737Z,2.10
2018-09-22T20:51:19.259Z,2.00
2018-09-22T20:53:47.825Z,1.97
2018-09-22T20:56:16.420Z,2.20
2018-09-22T20:58:45.026Z,2.00
2018-09-22T21:01:13.578Z,2.33
2018-09-22T21:03:42.122Z,1.93
2018-09-22T21:06:10.658Z,2.20
2018-09-22T21:08:39.263Z,2.00
2018-09-22T21:11:08.618Z,2.30
2018-09-22T21:13:37.323Z,2.13
2018-09-22T21:16:05.915Z,2.00
2018-09-22T21:18:34.475Z,2.27
2018-09-22T21:21:03.049Z,1.90
2018-09-22T21:23:31.626Z,2.13
2018-09-22T21:26:00.166Z,2.20
2018-09-22T21:28:28.754Z,2.03
2018-09-22T21:30:57.359Z,2.20
2018-09-22T21:33:25.944Z,2.20
2018-09-22T21:35:54.561Z,1.87
2018-09-22T21:38:23.122Z,2.40
2018-09-22T21:40:51.702Z,1.93
2018-09-22T21:43:20.516Z,2.13
2018-09-22T21:45:49.087Z,2.10
2018-09-22T21:48:17.699Z,2.33
2018-09-22T21:50:46.284Z,1.83
2018-09-22T21:53:14.826Z,2.07
2018-09-22T21:55:43.346Z,1.90
2018-09-22T21:58:11.963Z,1.87
2018-09-22T22:00:40.513Z,2.00
2018-09-22T22:03:09.074Z,2.30
2018-09-22T22:05:37.587Z,1.90
2018-09-22T22:08:06.202Z,1.80
2018-09-22T22:10:34.753Z,2.23
2018-09-22T22:13:03.376Z,2.30
2018-09-22T22:15:31.956Z,1.83
2018-09-22T22:18:00.612Z,2.00
2018-09-22T22:20:29.142Z,1.90
2018-09-22T22:22:57.687Z,2.40
2018-09-22T22:25:27.704Z,2.20
2018-09-22T22:27:56.267Z,1.90
2018-09-22T22:30:24.951Z,2.07
2018-09-22T22:32:53.555Z,2.10
2018-09-22T22:35:22.203Z,2.10
2018-09-22T22:37:50.805Z,2.00
2018-09-22T22:40:19.935Z,2.00
2018-09-22T22:42:48.463Z,1.87
2018-09-22T22:45:17.093Z,2.10
2018-09-22T22:47:45.664Z,2.10
2018-09-22T22:50:14.236Z,2.10
2018-09-22T22:52:42.816Z,2.43
2018-09-22T22:55:11.357Z,2.07
2018-09-22T22:57:39.993Z,1.93
2018-09-22T23:00:08.738Z,2.10
2018-09-22T23:02:38.363Z,2.10
2018-09-22T23:05:06.978Z,2.10
2018-09-22T23:07:35.577Z,1.80
2018-09-22T23:10:04.179Z,2.00
2018-09-22T23:12:32.767Z,1.90
2018-09-22T23:15:01.488Z,2.10
2018-09-22T23:17:30.047Z,2.27
2018-09-22T23:19:58.659Z,1.67
2018-09-22T23:22:27.227Z,2.10
2018-09-22T23:24:55.828Z,2.10
2018-09-22T23:27:24.382Z,1.90
2018-09-22T23:29:53.167Z,2.00
2018-09-22T23:32:21.715Z,1.97
2018-09-22T23:34:50.262Z,1.90
2018-09-22T23:37:18.837Z,1.90
2018-09-22T23:39:47.326Z,2.10
2018-09-22T23:42:16.439Z,1.80
2018-09-22T23:44:45.657Z,2.40
2018-09-22T23:47:14.206Z,1.77
2018-09-22T23:49:42.729Z,2.00
2018-09-22T23:52:11.345Z,2.10
2018-09-22T23:54:39.906Z,1.90
2018-09-22T23:57:08.414Z,1.60
2018-09-22T23:59:36.972Z,1.97
